createdAt,value
2019-04-21T00:00:13.180Z,12.67
2019-04-21T00:01:12.395Z,12.68
2019-04-21T00:02:09.144Z,12.67
2019-04-21T00:03:15.207Z,12.65
2019-04-21T00:04:21.117Z,12.59
2019-04-21T00:05:35.157Z,12.53
2019-04-21T00:06:31.556Z,12.71
2019-04-21T00:07:29.684Z,12.57
2019-04-21T00:08:30.959Z,12.57
2019-04-21T00:09:36.027Z,12.65
2019-04-21T00:10:36.071Z,12.59
2019-04-21T00:11:29.879Z,12.65
2019-04-21T00:12:27.314Z,12.68
2019-04-21T00:13:23.831Z,12.54
2019-04-21T00:14:17.913Z,12.56
2019-04-21T00:15:19.387Z,12.54
2019-04-21T00:16:12.035Z,12.54
2019-04-21T00:17:12.980Z,12.57
2019-04-21T00:18:10.443Z,12.54
2019-04-21T00:19:14.327Z,12.50
2019-04-21T00:20:17.792Z,12.41
2019-04-21T00:21:15.222Z,12.37
2019-04-21T00:22:19.408Z,12.35
2019-04-21T00:23:24.292Z,12.35
2019-04-21T00:24:21.541Z,12.35
2019-04-21T00:25:25.214Z,12.35
2019-04-21T00:26:25.377Z,12.32
2019-04-21T00:27:24.467Z,12.23
2019-04-21T00:28:33.169Z,12.17
2019-04-21T00:29:31.389Z,12.17
2019-04-21T00:30:26.941Z,12.14
2019-04-21T00:31:24.638Z,12.17
2019-04-21T00:32:22.182Z,12.19
2019-04-21T00:33:13.887Z,12.21
2019-04-21T00:34:06.714Z,12.27
2019-04-21T00:35:11.688Z,12.24
2019-04-21T00:36:13.336Z,12.19
2019-04-21T00:37:18.917Z,12.16
2019-04-21T00:38:25.026Z,12.14
2019-04-21T00:39:41.572Z,12.05
2019-04-21T00:40:27.811Z,12.14
2019-04-21T00:41:29.682Z,12.01
2019-04-21T00:42:22.739Z,12.10
2019-04-21T00:43:23.373Z,11.95
2019-04-21T00:44:17.342Z,11.99
2019-04-21T00:45:20.636Z,11.96
2019-04-21T00:46:17.482Z,11.86
2019-04-21T00:47:28.944Z,12.01
2019-04-21T00:48:32.952Z,12.01
2019-04-21T00:49:19.695Z,11.88
2019-04-21T00:50:27.863Z,11.88
2019-04-21T00:51:33.154Z,11.82
2019-04-21T00:52:43.661Z,11.69
2019-04-21T00:53:37.125Z,11.80
2019-04-21T00:54:33.109Z,11.75
2019-04-21T00:56:30.427Z,11.70
2019-04-21T00:57:32.571Z,11.69
2019-04-21T00:58:28.678Z,11.64
2019-04-21T00:59:28.205Z,11.60
2019-04-21T01:00:42.241Z,11.60
2019-04-21T01:01:28.398Z,11.69
2019-04-21T01:02:26.437Z,11.64
2019-04-21T01:03:26.427Z,11.61
2019-04-21T01:04:30.663Z,11.60
2019-04-21T01:05:33.867Z,11.55
2019-04-21T01:06:29.082Z,11.52
2019-04-21T01:07:30.466Z,11.49
2019-04-21T01:08:25.150Z,11.57
2019-04-21T01:09:25.933Z,11.55
2019-04-21T01:10:17.476Z,11.58
2019-04-21T01:11:23.846Z,11.54
2019-04-21T01:12:32.110Z,11.57
2019-04-21T01:13:27.286Z,11.60
2019-04-21T01:14:30.092Z,11.64
2019-04-21T01:15:32.519Z,11.58
2019-04-21T01:16:27.590Z,11.54
2019-04-21T01:17:23.213Z,11.49
2019-04-21T01:18:22.981Z,11.44
2019-04-21T01:19:21.130Z,11.47
2019-04-21T01:20:16.162Z,11.51
2019-04-21T01:21:13.739Z,11.47
2019-04-21T01:22:02.590Z,11.60
2019-04-21T01:23:02.501Z,11.58
2019-04-21T01:24:11.823Z,11.57
2019-04-21T01:25:13.307Z,11.57
2019-04-21T01:26:18.018Z,11.47
2019-04-21T01:27:11.154Z,11.46
2019-04-21T01:28:18.918Z,11.49
2019-04-21T01:29:22.434Z,11.44
2019-04-21T01:30:22.318Z,11.51
2019-04-21T01:31:17.530Z,11.46
2019-04-21T01:32:23.718Z,11.44
2019-04-21T01:33:27.757Z,11.42
2019-04-21T01:34:22.022Z,11.44
2019-04-21T01:35:21.434Z,11.42
2019-04-21T01:36:18.110Z,11.36
2019-04-21T01:37:25.198Z,11.32
2019-04-21T01:38:21.610Z,11.24
2019-04-21T01:39:29.411Z,11.22
2019-04-21T01:41:25.496Z,11.19
2019-04-21T01:42:21.138Z,11.21
2019-04-21T01:43:20.080Z,11.19
2019-04-21T01:44:28.074Z,11.15
2019-04-21T01:45:22.442Z,11.17
2019-04-21T01:46:13.899Z,11.15
2019-04-21T01:47:17.481Z,11.18
2019-04-21T01:48:15.884Z,11.17
2019-04-21T01:49:11.525Z,11.18
2019-04-21T01:50:19.827Z,11.21
2019-04-21T01:51:16.039Z,11.15
2019-04-21T01:52:24.059Z,11.14
2019-04-21T01:53:23.894Z,11.15
2019-04-21T01:54:21.924Z,11.10
2019-04-21T01:55:18.337Z,11.02
2019-04-21T01:56:17.981Z,11.02
2019-04-21T01:57:19.419Z,10.89
2019-04-21T01:58:11.717Z,10.94
2019-04-21T01:59:06.891Z,10.91
2019-04-21T02:00:12.261Z,11.00
2019-04-21T02:01:21.652Z,10.94
2019-04-21T02:02:20.342Z,10.96
2019-04-21T02:03:34.421Z,10.91
2019-04-21T02:04:23.989Z,10.94
2019-04-21T02:05:27.012Z,10.82
2019-04-21T02:06:21.426Z,10.70
2019-04-21T02:07:20.643Z,10.81
2019-04-21T02:08:20.167Z,10.63
2019-04-21T02:09:15.393Z,10.63
2019-04-21T02:10:20.870Z,10.66
2019-04-21T02:11:24.530Z,10.66
2019-04-21T02:12:21.007Z,10.63
2019-04-21T02:13:17.179Z,10.66
2019-04-21T02:14:23.552Z,10.67
2019-04-21T02:15:26.869Z,10.64
2019-04-21T02:16:19.039Z,10.55
2019-04-21T02:17:19.772Z,10.59
2019-04-21T02:18:17.014Z,10.56
2019-04-21T02:19:13.876Z,10.55
2019-04-21T02:20:12.009Z,10.60
2019-04-21T02:21:14.341Z,10.60
2019-04-21T02:22:19.248Z,10.53
2019-04-21T02:23:28.263Z,10.59
2019-04-21T02:24:20.463Z,10.55
2019-04-21T02:25:20.938Z,10.56
2019-04-21T02:26:16.462Z,10.59
2019-04-21T02:27:19.231Z,10.59
2019-04-21T02:28:22.418Z,10.55
2019-04-21T02:29:20.654Z,10.34
2019-04-21T02:30:29.415Z,10.55
2019-04-21T02:31:30.528Z,10.56
2019-04-21T02:32:28.633Z,10.60
2019-04-21T02:33:36.136Z,10.56
2019-04-21T02:34:25.880Z,10.53
2019-04-21T02:36:44.814Z,10.45
2019-04-21T02:37:36.695Z,10.45
2019-04-21T02:38:34.487Z,10.44
2019-04-21T02:40:29.795Z,10.40
2019-04-21T02:41:31.157Z,10.44
2019-04-21T02:42:33.018Z,10.40
2019-04-21T02:44:31.571Z,10.38
2019-04-21T02:45:40.928Z,10.33
2019-04-21T02:46:31.304Z,10.36
2019-04-21T02:47:38.961Z,10.27
2019-04-21T02:48:28.729Z,10.26
2019-04-21T02:50:43.378Z,10.20
2019-04-21T02:51:27.950Z,10.30
2019-04-21T02:52:31.742Z,10.27
2019-04-21T02:53:30.536Z,10.25
2019-04-21T02:55:22.067Z,10.32
2019-04-21T02:56:37.525Z,10.14
2019-04-21T02:57:25.844Z,10.25
2019-04-21T02:58:34.732Z,10.12
2019-04-21T02:59:22.678Z,10.12
2019-04-21T03:02:35.484Z,9.97
2019-04-21T03:03:29.545Z,9.97
2019-04-21T03:04:28.205Z,9.99
2019-04-21T03:05:29.120Z,10.04
2019-04-21T03:06:31.447Z,10.05
2019-04-21T03:07:19.180Z,10.07
2019-04-21T03:08:40.395Z,10.11
2019-04-21T03:09:24.415Z,10.01
2019-04-21T03:10:26.636Z,10.01
2019-04-21T03:11:21.399Z,9.91
2019-04-21T03:12:18.167Z,9.83
2019-04-21T03:13:29.763Z,9.83
2019-04-21T03:18:24.321Z,9.54
2019-04-21T03:19:31.291Z,9.50
2019-04-21T03:20:23.806Z,9.47
2019-04-21T03:21:22.072Z,9.57
2019-04-21T03:22:38.200Z,9.46
2019-04-21T03:24:25.841Z,9.40
2019-04-21T03:25:39.113Z,9.42
2019-04-21T03:26:33.903Z,9.32
2019-04-21T03:28:22.672Z,9.29
2019-04-21T03:29:28.846Z,9.36
2019-04-21T03:32:55.385Z,9.31
2019-04-21T03:34:51.467Z,9.24
2019-04-21T03:36:02.139Z,9.26
2019-04-21T03:37:28.470Z,9.21
2019-04-21T03:38:37.485Z,9.23
2019-04-21T03:39:17.998Z,9.31
2019-04-21T03:41:26.881Z,9.31
2019-04-21T03:43:23.162Z,9.18
2019-04-21T03:44:26.673Z,9.14
2019-04-21T03:45:30.968Z,9.08
2019-04-21T03:46:28.230Z,9.18
2019-04-21T03:47:22.971Z,9.20
2019-04-21T03:48:38.288Z,9.18
2019-04-21T03:49:28.856Z,9.21
2019-04-21T03:51:21.415Z,9.20
2019-04-21T03:52:38.809Z,9.20
2019-04-21T03:53:43.789Z,9.18
2019-04-21T03:54:16.053Z,9.21
2019-04-21T03:56:27.214Z,9.17
2019-04-21T03:57:38.044Z,9.15
2019-04-21T03:59:21.009Z,9.08
2019-04-21T04:00:34.582Z,9.17
2019-04-21T04:02:22.974Z,9.10
2019-04-21T04:03:42.074Z,9.05
2019-04-21T04:04:30.632Z,9.01
2019-04-21T04:05:24.321Z,8.95
2019-04-21T04:06:20.598Z,9.01
2019-04-21T04:08:38.926Z,8.87
2019-04-21T04:09:41.740Z,8.98
2019-04-21T04:10:40.749Z,8.96
2019-04-21T04:12:13.448Z,8.98
2019-04-21T04:13:34.183Z,9.02
2019-04-21T04:15:20.537Z,9.08
2019-04-21T04:17:16.895Z,9.10
2019-04-21T04:18:28.311Z,9.04
2019-04-21T04:19:30.081Z,9.04
2019-04-21T04:20:22.242Z,9.05
2019-04-21T04:22:24.908Z,9.11
2019-04-21T04:24:24.436Z,9.21
2019-04-21T04:25:17.468Z,9.18
2019-04-21T04:27:33.672Z,9.04
2019-04-21T04:28:18.946Z,9.14
2019-04-21T04:29:19.823Z,9.17
2019-04-21T04:31:27.145Z,9.15
2019-04-21T04:32:23.230Z,9.28
2019-04-21T04:33:21.311Z,9.29
2019-04-21T04:34:22.339Z,9.28
2019-04-21T04:36:31.147Z,9.26
2019-04-21T04:37:28.740Z,9.32
2019-04-21T04:38:26.713Z,9.35
2019-04-21T04:39:36.536Z,9.33
2019-04-21T04:40:19.676Z,9.38
2019-04-21T04:41:33.172Z,9.39
2019-04-21T04:42:27.006Z,9.47
2019-04-21T04:43:23.294Z,9.50
2019-04-21T04:44:36.445Z,9.54
2019-04-21T04:45:26.448Z,9.61
2019-04-21T04:46:20.331Z,9.53
2019-04-21T04:47:18.423Z,9.58
2019-04-21T04:48:24.427Z,9.60
2019-04-21T04:49:23.656Z,9.66
2019-04-21T04:50:09.952Z,9.60
2019-04-21T04:51:14.510Z,9.64
2019-04-21T04:53:20.458Z,9.71
2019-04-21T04:54:19.878Z,9.76
2019-04-21T04:55:19.069Z,9.68
2019-04-21T04:57:40.090Z,9.84
2019-04-21T04:58:54.620Z,9.86
2019-04-21T05:00:18.097Z,9.89
2019-04-21T05:01:33.893Z,10.01
2019-04-21T05:03:18.910Z,10.12
2019-04-21T05:04:15.874Z,10.15
2019-04-21T05:05:23.804Z,10.23
2019-04-21T05:06:28.085Z,10.26
2019-04-21T05:07:17.290Z,10.42
2019-04-21T05:08:24.367Z,10.60
2019-04-21T05:09:15.111Z,10.78
2019-04-21T05:11:23.383Z,11.02
2019-04-21T05:12:09.271Z,11.11
2019-04-21T05:13:16.144Z,11.19
2019-04-21T05:16:26.370Z,11.40
2019-04-21T05:17:14.513Z,11.42
2019-04-21T05:18:35.082Z,11.44
2019-04-21T05:20:13.656Z,11.60
2019-04-21T05:22:14.139Z,11.90
2019-04-21T05:23:05.862Z,12.10
2019-04-21T05:24:02.146Z,12.34
2019-04-21T05:24:59.468Z,12.34
2019-04-21T05:25:54.293Z,12.53
2019-04-21T05:26:59.576Z,12.59
2019-04-21T05:27:56.335Z,12.57
2019-04-21T05:28:50.981Z,12.72
2019-04-21T05:30:15.327Z,12.86
2019-04-21T05:31:09.082Z,12.90
2019-04-21T05:32:01.472Z,12.95
2019-04-21T05:33:05.581Z,12.97
2019-04-21T05:34:03.134Z,13.25
2019-04-21T05:35:01.564Z,13.22
2019-04-21T05:36:07.681Z,13.17
2019-04-21T05:37:03.941Z,13.30
2019-04-21T05:38:03.028Z,13.45
2019-04-21T05:38:58.387Z,13.26
2019-04-21T05:39:57.957Z,13.07
2019-04-21T05:40:57.618Z,12.90
2019-04-21T05:41:50.621Z,12.87
2019-04-21T05:42:55.754Z,12.82
2019-04-21T05:44:03.837Z,12.79
2019-04-21T05:45:08.089Z,12.95
2019-04-21T05:46:21.241Z,12.83
2019-04-21T05:47:15.835Z,12.92
2019-04-21T05:48:12.235Z,12.87
2019-04-21T05:49:05.094Z,12.96
2019-04-21T05:50:00.975Z,12.93
2019-04-21T05:51:01.980Z,12.79
2019-04-21T05:51:55.624Z,12.74
2019-04-21T05:52:57.308Z,12.82
2019-04-21T05:54:10.573Z,12.79
2019-04-21T05:55:01.189Z,12.77
2019-04-21T05:56:07.075Z,12.68
2019-04-21T05:56:59.810Z,12.56
2019-04-21T05:58:02.583Z,12.65
2019-04-21T05:59:03.373Z,12.78
2019-04-21T06:00:02.645Z,12.82
2019-04-21T06:02:06.111Z,12.57
2019-04-21T06:03:04.056Z,12.67
2019-04-21T06:04:03.608Z,12.72
2019-04-21T06:06:10.762Z,12.75
2019-04-21T06:07:06.159Z,12.82
2019-04-21T06:08:00.453Z,12.78
2019-04-21T06:08:59.515Z,12.83
2019-04-21T06:09:59.456Z,12.86
2019-04-21T06:11:02.072Z,12.86
2019-04-21T06:12:02.972Z,12.86
2019-04-21T06:13:02.294Z,12.86
2019-04-21T06:14:06.069Z,12.77
2019-04-21T06:15:12.323Z,12.74
2019-04-21T06:16:04.948Z,12.77
2019-04-21T06:17:03.953Z,12.74
2019-04-21T06:18:07.905Z,12.78
2019-04-21T06:18:58.764Z,12.93
2019-04-21T06:20:01.383Z,12.83
2019-04-21T06:20:59.451Z,12.87
2019-04-21T06:21:57.441Z,12.86
2019-04-21T06:22:57.923Z,12.87
2019-04-21T06:23:57.319Z,13.11
2019-04-21T06:26:28.205Z,13.45
2019-04-21T06:27:17.659Z,13.63
2019-04-21T06:27:59.981Z,13.63
2019-04-21T06:28:59.910Z,13.69
2019-04-21T06:30:01.529Z,13.75
2019-04-21T06:32:52.763Z,13.49
2019-04-21T06:34:00.518Z,13.41
2019-04-21T06:35:14.889Z,13.41
2019-04-21T06:37:14.658Z,13.42
2019-04-21T06:37:56.544Z,13.52
2019-04-21T06:39:06.380Z,13.52
2019-04-21T06:40:15.170Z,13.64
2019-04-21T06:41:07.855Z,13.85
2019-04-21T06:41:58.481Z,14.06
2019-04-21T06:43:11.345Z,14.33
2019-04-21T06:44:09.489Z,14.42
2019-04-21T06:45:06.208Z,14.43
2019-04-21T06:46:02.211Z,14.36
2019-04-21T06:47:01.761Z,14.36
2019-04-21T06:47:57.827Z,14.35
2019-04-21T06:48:59.939Z,14.42
2019-04-21T06:49:58.599Z,14.29
2019-04-21T06:51:06.869Z,14.27
2019-04-21T06:52:07.319Z,14.22
2019-04-21T06:53:10.783Z,14.18
2019-04-21T06:55:03.326Z,14.33
2019-04-21T06:56:00.006Z,14.42
2019-04-21T06:57:10.091Z,14.61
2019-04-21T06:58:00.693Z,14.54
2019-04-21T06:58:55.506Z,14.50
2019-04-21T06:59:57.194Z,14.54
2019-04-21T07:00:56.390Z,14.52
2019-04-21T07:01:56.676Z,14.68
2019-04-21T07:04:06.867Z,14.99
2019-04-21T07:05:03.547Z,14.86
2019-04-21T07:06:04.681Z,14.70
2019-04-21T07:06:53.697Z,14.80
2019-04-21T07:08:14.845Z,14.89
2019-04-21T07:09:07.437Z,14.86
2019-04-21T07:09:59.805Z,14.81
2019-04-21T07:10:59.488Z,14.99
2019-04-21T07:11:56.811Z,15.01
2019-04-21T07:12:53.516Z,14.96
2019-04-21T07:14:14.832Z,15.19
2019-04-21T07:14:56.269Z,15.36
2019-04-21T07:16:00.586Z,15.44
2019-04-21T07:16:59.596Z,15.49
2019-04-21T07:17:57.807Z,15.80
2019-04-21T07:19:05.931Z,16.00
2019-04-21T07:19:57.102Z,16.09
2019-04-21T07:20:53.215Z,16.23
2019-04-21T07:21:51.328Z,16.21
2019-04-21T07:22:54.798Z,16.46
2019-04-21T07:24:03.147Z,16.56
2019-04-21T07:24:58.680Z,16.49
2019-04-21T07:25:54.899Z,16.97
2019-04-21T07:26:55.659Z,17.30
2019-04-21T07:27:57.084Z,17.78
2019-04-21T07:29:01.851Z,17.43
2019-04-21T07:29:59.650Z,17.78
2019-04-21T07:30:59.505Z,18.27
2019-04-21T07:31:59.893Z,18.57
2019-04-21T07:32:56.525Z,18.33
2019-04-21T07:35:00.134Z,19.11
2019-04-21T07:35:54.105Z,19.28
2019-04-21T07:36:56.073Z,19.43
2019-04-21T07:37:53.457Z,19.73
2019-04-21T07:38:49.846Z,19.54
2019-04-21T07:39:53.141Z,19.31
2019-04-21T07:40:48.382Z,19.44
2019-04-21T07:41:49.642Z,20.05
2019-04-21T07:42:47.722Z,20.62
2019-04-21T07:43:42.856Z,20.74
2019-04-21T07:44:46.390Z,20.79
2019-04-21T07:45:45.985Z,19.91
2019-04-21T07:46:45.206Z,19.96
2019-04-21T07:47:53.099Z,19.98
2019-04-21T07:48:53.553Z,20.41
2019-04-21T07:49:55.215Z,21.17
2019-04-21T07:50:52.046Z,21.31
2019-04-21T07:52:53.234Z,21.24
2019-04-21T07:53:59.586Z,21.25
2019-04-21T07:55:01.640Z,21.01
2019-04-21T07:55:31.785Z,20.74
2019-04-21T07:56:34.857Z,20.26
2019-04-21T07:57:44.201Z,20.52
2019-04-21T07:58:56.266Z,19.78
2019-04-21T08:00:08.384Z,20.57
2019-04-21T08:01:04.781Z,20.94
2019-04-21T08:01:50.039Z,21.32
2019-04-21T08:02:51.159Z,21.71
2019-04-21T08:03:56.960Z,22.21
2019-04-21T08:05:02.969Z,22.15
2019-04-21T08:05:52.614Z,21.58
2019-04-21T08:06:52.091Z,20.85
2019-04-21T08:07:52.031Z,20.20
2019-04-21T08:08:48.970Z,20.08
2019-04-21T08:09:46.441Z,20.87
2019-04-21T08:10:44.153Z,21.46
2019-04-21T08:11:44.285Z,21.88
2019-04-21T08:12:47.768Z,21.54
2019-04-21T08:14:00.598Z,21.28
2019-04-21T08:14:52.036Z,20.99
2019-04-21T08:16:04.724Z,21.53
2019-04-21T08:16:54.000Z,22.09
2019-04-21T08:17:47.288Z,22.75
2019-04-21T08:18:45.537Z,22.42
2019-04-21T08:19:43.049Z,21.91
2019-04-21T08:20:50.527Z,21.86
2019-04-21T08:21:53.062Z,21.24
2019-04-21T08:22:51.025Z,21.29
2019-04-21T08:23:48.362Z,21.82
2019-04-21T08:24:51.877Z,22.52
2019-04-21T08:25:58.889Z,22.98
2019-04-21T08:26:51.549Z,22.67
2019-04-21T08:28:58.882Z,23.25
2019-04-21T08:30:04.459Z,22.39
2019-04-21T08:30:47.853Z,22.86
2019-04-21T08:33:05.480Z,23.35
2019-04-21T08:34:55.956Z,23.42
2019-04-21T08:36:47.701Z,22.90
2019-04-21T08:37:43.352Z,23.40
2019-04-21T08:38:51.495Z,23.84
2019-04-21T08:39:56.512Z,22.80
2019-04-21T08:41:05.141Z,22.98
2019-04-21T08:41:48.455Z,22.70
2019-04-21T08:42:48.577Z,23.20
2019-04-21T08:43:44.705Z,23.04
2019-04-21T08:44:46.842Z,23.02
2019-04-21T08:45:46.859Z,23.33
2019-04-21T08:46:49.216Z,23.28
2019-04-21T08:47:50.285Z,23.61
2019-04-21T08:48:52.769Z,23.79
2019-04-21T08:49:49.162Z,23.15
2019-04-21T08:50:47.533Z,23.39
2019-04-21T08:51:48.560Z,22.67
2019-04-21T08:52:48.840Z,22.83
2019-04-21T08:53:47.574Z,23.15
2019-04-21T08:54:51.530Z,23.66
2019-04-21T08:55:50.784Z,23.58
2019-04-21T08:56:46.708Z,23.10
2019-04-21T08:57:50.849Z,23.16
2019-04-21T08:58:50.626Z,23.32
2019-04-21T08:59:46.002Z,23.04
2019-04-21T09:00:47.339Z,23.69
2019-04-21T09:01:43.069Z,23.65
2019-04-21T09:02:49.513Z,23.48
2019-04-21T09:03:43.255Z,22.86
2019-04-21T09:04:40.065Z,22.35
2019-04-21T09:05:46.721Z,22.72
2019-04-21T09:07:10.555Z,23.63
2019-04-21T09:07:49.300Z,24.31
2019-04-21T09:08:49.693Z,24.55
2019-04-21T09:10:39.578Z,23.97
2019-04-21T09:11:41.965Z,24.34
2019-04-21T09:12:43.149Z,23.87
2019-04-21T09:13:42.566Z,23.97
2019-04-21T09:14:41.917Z,24.34
2019-04-21T09:15:41.941Z,24.62
2019-04-21T09:16:40.725Z,24.34
2019-04-21T09:17:37.732Z,24.50
2019-04-21T09:18:38.073Z,24.10
2019-04-21T09:19:54.992Z,24.12
2019-04-21T09:20:47.337Z,24.24
2019-04-21T09:21:45.513Z,24.53
2019-04-21T09:22:41.535Z,25.10
2019-04-21T09:23:39.146Z,24.96
2019-04-21T09:24:42.699Z,25.09
2019-04-21T09:25:48.327Z,25.25
2019-04-21T09:26:43.519Z,24.52
2019-04-21T09:27:42.459Z,24.39
2019-04-21T09:28:35.490Z,24.77
2019-04-21T09:29:33.206Z,24.43
2019-04-21T09:30:24.079Z,24.88
2019-04-21T09:31:28.981Z,25.15
2019-04-21T09:32:26.800Z,25.00
2019-04-21T09:33:28.069Z,24.46
2019-04-21T09:34:30.499Z,24.40
2019-04-21T09:35:24.120Z,23.65
2019-04-21T09:36:25.417Z,23.72
2019-04-21T09:37:36.692Z,24.10
2019-04-21T09:38:29.930Z,24.77
2019-04-21T09:39:25.649Z,24.60
2019-04-21T09:40:30.097Z,23.80
2019-04-21T09:41:25.538Z,23.20
2019-04-21T09:42:33.349Z,22.62
2019-04-21T09:43:30.759Z,22.07
2019-04-21T09:44:30.471Z,21.88
2019-04-21T09:45:22.957Z,21.34
2019-04-21T09:46:23.196Z,21.13
2019-04-21T09:47:24.949Z,21.25
2019-04-21T09:48:24.225Z,21.50
2019-04-21T09:49:27.033Z,21.75
2019-04-21T09:50:22.169Z,21.61
2019-04-21T09:51:21.915Z,21.10
2019-04-21T09:52:25.715Z,21.32
2019-04-21T09:53:28.777Z,21.17
2019-04-21T09:54:27.742Z,20.52
2019-04-21T09:55:24.367Z,20.69
2019-04-21T09:56:32.469Z,20.62
2019-04-21T09:57:31.381Z,20.70
2019-04-21T09:58:29.343Z,20.54
2019-04-21T09:59:28.151Z,20.33
2019-04-21T10:00:25.341Z,20.13
2019-04-21T10:01:28.787Z,20.13
2019-04-21T10:02:32.782Z,20.38
2019-04-21T10:03:21.255Z,20.24
2019-04-21T10:04:20.962Z,20.26
2019-04-21T10:05:21.436Z,20.58
2019-04-21T10:06:20.870Z,20.88
2019-04-21T10:07:26.470Z,20.99
2019-04-21T10:08:20.629Z,21.27
2019-04-21T10:09:21.799Z,21.49
2019-04-21T10:10:20.479Z,21.65
2019-04-21T10:11:21.056Z,21.68
2019-04-21T10:12:20.338Z,21.61
2019-04-21T10:13:20.862Z,21.43
2019-04-21T10:14:20.169Z,21.46
2019-04-21T10:15:23.245Z,21.43
2019-04-21T10:16:20.017Z,21.37
2019-04-21T10:17:19.942Z,21.74
2019-04-21T10:18:19.869Z,21.84
2019-04-21T10:19:20.999Z,21.54
2019-04-21T10:20:20.165Z,21.54
2019-04-21T10:21:19.774Z,21.77
2019-04-21T10:22:21.008Z,21.96
2019-04-21T10:23:19.482Z,22.18
2019-04-21T10:24:20.232Z,22.24
2019-04-21T10:25:20.743Z,21.32
2019-04-21T10:26:19.256Z,20.99
2019-04-21T10:27:19.194Z,20.92
2019-04-21T10:28:19.156Z,20.51
2019-04-21T10:29:24.233Z,20.88
2019-04-21T10:30:20.109Z,21.34
2019-04-21T10:31:18.869Z,21.53
2019-04-21T10:32:21.617Z,21.53
2019-04-21T10:33:18.719Z,21.72
2019-04-21T10:34:19.145Z,22.18
2019-04-21T10:35:21.162Z,22.14
2019-04-21T10:36:19.107Z,21.99
2019-04-21T10:37:18.829Z,21.72
2019-04-21T10:38:27.971Z,22.14
2019-04-21T10:39:18.261Z,22.37
2019-04-21T10:40:18.185Z,22.58
2019-04-21T10:41:19.263Z,22.51
2019-04-21T10:42:19.423Z,21.96
2019-04-21T10:43:22.071Z,22.15
2019-04-21T10:44:19.005Z,22.17
2019-04-21T10:45:18.898Z,22.09
2019-04-21T10:46:19.057Z,21.68
2019-04-21T10:47:18.605Z,22.03
2019-04-21T10:48:18.819Z,22.47
2019-04-21T10:49:18.896Z,22.31
2019-04-21T10:50:18.359Z,22.68
2019-04-21T10:51:17.346Z,23.01
2019-04-21T10:52:17.274Z,23.43
2019-04-21T10:53:17.196Z,23.07
2019-04-21T10:54:17.886Z,23.23
2019-04-21T10:55:32.103Z,23.19
2019-04-21T10:56:25.217Z,23.38
2019-04-21T10:57:16.897Z,24.00
2019-04-21T10:58:18.210Z,23.76
2019-04-21T10:59:16.750Z,24.22
2019-04-21T11:00:17.548Z,24.73
2019-04-21T11:01:16.793Z,24.24
2019-04-21T11:02:17.054Z,24.58
2019-04-21T11:03:17.131Z,24.62
2019-04-21T11:04:21.839Z,23.57
2019-04-21T11:05:16.777Z,22.91
2019-04-21T11:06:16.887Z,24.08
2019-04-21T11:07:19.582Z,24.77
2019-04-21T11:08:24.724Z,25.79
2019-04-21T11:09:16.025Z,26.51
2019-04-21T11:10:16.175Z,25.90
2019-04-21T11:11:16.256Z,25.95
2019-04-21T11:12:15.786Z,26.48
2019-04-21T11:13:16.605Z,26.89
2019-04-21T11:14:15.639Z,26.39
2019-04-21T11:15:16.973Z,26.30
2019-04-21T11:16:15.505Z,26.88
2019-04-21T11:17:16.448Z,27.59
2019-04-21T11:18:15.713Z,27.72
2019-04-21T11:19:15.924Z,27.17
2019-04-21T11:20:15.213Z,27.18
2019-04-21T11:21:16.538Z,27.04
2019-04-21T11:22:15.076Z,27.72
2019-04-21T11:23:16.372Z,28.41
2019-04-21T11:24:16.250Z,28.80
2019-04-21T11:25:15.832Z,28.46
2019-04-21T11:26:15.904Z,28.21
2019-04-21T11:27:15.011Z,28.00
2019-04-21T11:28:14.700Z,27.50
2019-04-21T11:29:14.970Z,26.80
2019-04-21T11:30:15.654Z,27.12
2019-04-21T11:31:15.389Z,27.14
2019-04-21T11:32:14.779Z,27.70
2019-04-21T11:33:15.355Z,27.60
2019-04-21T11:34:15.370Z,27.09
2019-04-21T11:35:15.050Z,27.60
2019-04-21T11:36:15.288Z,26.48
2019-04-21T11:37:14.333Z,26.80
2019-04-21T11:38:19.036Z,26.25
2019-04-21T11:39:25.599Z,26.75
2019-04-21T11:40:17.644Z,26.69
2019-04-21T11:41:13.912Z,26.62
2019-04-21T11:42:13.726Z,27.25
2019-04-21T11:43:13.758Z,27.70
2019-04-21T11:44:14.094Z,27.75
2019-04-21T11:45:14.598Z,27.96
2019-04-21T11:46:13.467Z,26.01
2019-04-21T11:47:14.296Z,25.98
2019-04-21T11:48:14.318Z,26.47
2019-04-21T11:49:13.254Z,26.66
2019-04-21T11:50:13.191Z,27.29
2019-04-21T11:51:13.230Z,26.95
2019-04-21T11:52:13.291Z,27.09
2019-04-21T11:53:12.992Z,26.54
2019-04-21T11:54:13.026Z,25.87
2019-04-21T11:55:14.247Z,25.69
2019-04-21T11:56:12.791Z,25.02
2019-04-21T11:57:20.293Z,25.28
2019-04-21T11:58:13.922Z,25.15
2019-04-21T11:59:12.591Z,26.25
2019-04-21T12:00:13.525Z,26.32
2019-04-21T12:01:13.749Z,26.47
2019-04-21T12:02:12.392Z,26.89
2019-04-21T12:03:15.171Z,27.62
2019-04-21T12:04:13.750Z,27.77
2019-04-21T12:05:12.192Z,27.90
2019-04-21T12:06:13.257Z,27.85
2019-04-21T12:07:13.260Z,27.39
2019-04-21T12:08:23.077Z,27.31
2019-04-21T12:09:11.998Z,27.28
2019-04-21T12:10:11.860Z,27.75
2019-04-21T12:11:11.781Z,26.01
2019-04-21T12:12:11.746Z,25.99
2019-04-21T12:13:12.089Z,25.45
2019-04-21T12:14:12.081Z,24.83
2019-04-21T12:15:14.081Z,25.58
2019-04-21T12:16:12.762Z,26.06
2019-04-21T12:17:12.104Z,26.80
2019-04-21T12:18:12.124Z,26.48
2019-04-21T12:19:12.483Z,26.72
2019-04-21T12:20:11.181Z,27.67
2019-04-21T12:21:11.466Z,28.21
2019-04-21T12:22:18.205Z,28.74
2019-04-21T12:23:12.110Z,28.19
2019-04-21T12:24:11.134Z,28.59
2019-04-21T12:25:11.262Z,28.88
2019-04-21T12:26:10.782Z,29.06
2019-04-21T12:27:11.930Z,28.78
2019-04-21T12:28:12.070Z,29.09
2019-04-21T12:29:10.581Z,29.45
2019-04-21T12:30:11.444Z,28.56
2019-04-21T12:31:11.553Z,28.09
2019-04-21T12:32:10.381Z,27.97
2019-04-21T12:33:10.306Z,27.40
2019-04-21T12:34:10.262Z,28.25
2019-04-21T12:35:10.174Z,28.51
2019-04-21T12:36:11.487Z,27.82
2019-04-21T12:37:10.939Z,27.59
2019-04-21T12:38:10.869Z,27.27
2019-04-21T12:39:10.662Z,26.87
2019-04-21T12:40:10.532Z,26.73
2019-04-21T12:41:10.679Z,27.59
2019-04-21T12:42:09.708Z,28.06
2019-04-21T12:43:10.491Z,27.17
2019-04-21T12:44:10.736Z,27.22
2019-04-21T12:45:09.773Z,27.66
2019-04-21T12:46:09.710Z,28.06
2019-04-21T12:47:10.073Z,28.80
2019-04-21T12:48:10.421Z,28.95
2019-04-21T12:49:09.822Z,29.48
2019-04-21T12:50:09.184Z,29.82
2019-04-21T12:51:10.110Z,30.07
2019-04-21T12:52:09.357Z,30.42
2019-04-21T12:53:09.799Z,30.67
2019-04-21T12:54:09.854Z,30.47
2019-04-21T12:55:09.451Z,30.57
2019-04-21T12:56:09.484Z,29.36
2019-04-21T12:57:09.560Z,27.72
2019-04-21T12:58:08.648Z,27.84
2019-04-21T12:59:09.918Z,28.55
2019-04-21T13:00:09.020Z,28.96
2019-04-21T13:01:09.325Z,29.02
2019-04-21T13:02:09.505Z,28.06
2019-04-21T13:03:08.322Z,27.93
2019-04-21T13:04:08.267Z,28.14
2019-04-21T13:05:09.422Z,28.24
2019-04-21T13:06:08.125Z,28.29
2019-04-21T13:07:08.048Z,28.80
2019-04-21T13:08:09.163Z,29.09
2019-04-21T13:09:11.179Z,29.60
2019-04-21T13:10:08.540Z,28.46
2019-04-21T13:11:09.486Z,28.44
2019-04-21T13:12:08.878Z,28.96
2019-04-21T13:13:08.098Z,28.61
2019-04-21T13:14:08.251Z,28.59
2019-04-21T13:15:08.620Z,28.74
2019-04-21T13:16:07.460Z,28.46
2019-04-21T13:17:07.623Z,27.87
2019-04-21T13:18:08.161Z,27.14
2019-04-21T13:19:07.262Z,27.62
2019-04-21T13:20:07.343Z,27.18
2019-04-21T13:21:07.215Z,26.69
2019-04-21T13:22:07.850Z,27.07
2019-04-21T13:23:08.029Z,27.49
2019-04-21T13:24:07.184Z,27.47
2019-04-21T13:25:07.618Z,27.57
2019-04-21T13:26:07.983Z,28.14
2019-04-21T13:27:07.460Z,28.21
2019-04-21T13:28:06.975Z,28.62
2019-04-21T13:29:06.599Z,29.06
2019-04-21T13:30:06.526Z,29.05
2019-04-21T13:31:06.602Z,28.61
2019-04-21T13:32:08.406Z,27.94
2019-04-21T13:33:07.136Z,27.13
2019-04-21T13:34:06.292Z,26.91
2019-04-21T13:35:06.200Z,26.57
2019-04-21T13:36:07.517Z,26.40
2019-04-21T13:37:06.090Z,25.70
2019-04-21T13:38:18.243Z,25.24
2019-04-21T13:39:42.685Z,25.06
2019-04-21T13:40:24.933Z,24.55
2019-04-21T13:41:22.641Z,24.52
2019-04-21T13:42:14.437Z,24.47
2019-04-21T13:43:08.137Z,24.05
2019-04-21T13:44:05.589Z,23.91
2019-04-21T13:45:06.449Z,23.65
2019-04-21T13:46:05.875Z,23.58
2019-04-21T13:47:06.663Z,23.76
2019-04-21T13:48:06.569Z,23.83
2019-04-21T13:49:05.311Z,23.94
2019-04-21T13:50:06.648Z,24.03
2019-04-21T13:51:05.102Z,24.10
2019-04-21T13:52:05.027Z,24.20